createdAt,value
2022-08-26T00:01:31.170Z,4.85
2022-08-26T00:03:58.567Z,5.15
2022-08-26T00:06:26.244Z,5.38
2022-08-26T00:08:53.269Z,5.45
2022-08-26T00:11:26.610Z,4.95
2022-08-26T00:13:55.047Z,5.45
2022-08-26T00:16:23.487Z,5.53
2022-08-26T00:18:50.416Z,5.07
2022-08-26T00:21:17.214Z,5.05
2022-08-26T00:23:44.102Z,5.43
2022-08-26T00:26:11.154Z,4.90
2022-08-26T00:28:37.989Z,5.65
2022-08-26T00:31:07.755Z,4.55
2022-08-26T00:33:39.419Z,4.90
2022-08-26T00:36:07.251Z,5.13
2022-08-26T00:38:37.895Z,5.47
2022-08-26T00:41:06.371Z,5.25
2022-08-26T00:43:47.239Z,5.43
2022-08-26T00:46:18.525Z,5.55
2022-08-26T00:48:48.172Z,6.13
2022-08-26T00:51:24.745Z,5.45
2022-08-26T00:54:04.040Z,5.88
2022-08-26T00:56:40.776Z,5.68
2022-08-26T00:59:10.382Z,5.80
2022-08-26T01:01:38.043Z,5.55
2022-08-26T01:04:05.927Z,5.10
2022-08-26T01:06:32.738Z,5.47
2022-08-26T01:09:00.010Z,5.50
2022-08-26T01:11:27.653Z,5.72
2022-08-26T01:13:58.108Z,5.80
2022-08-26T01:16:25.543Z,6.38
2022-08-26T01:18:58.925Z,5.80
2022-08-26T01:21:25.318Z,5.95
2022-08-26T01:23:57.385Z,6.00
2022-08-26T01:26:35.713Z,5.70
2022-08-26T01:29:05.220Z,5.22
2022-08-26T01:31:41.807Z,5.93
2022-08-26T01:34:14.847Z,5.88
2022-08-26T01:36:41.965Z,5.90
2022-08-26T01:39:09.332Z,6.32
2022-08-26T01:41:40.523Z,6.80
2022-08-26T01:44:20.016Z,7.18
2022-08-26T01:46:50.743Z,7.55
2022-08-26T01:49:18.544Z,8.43
2022-08-26T01:51:48.009Z,8.13
2022-08-26T01:54:16.098Z,8.90
2022-08-26T01:56:42.956Z,9.30
2022-08-26T01:59:14.781Z,8.75
2022-08-26T02:01:43.206Z,9.82
2022-08-26T02:04:28.678Z,8.90
2022-08-26T02:06:56.994Z,9.18
2022-08-26T02:09:26.458Z,12.88
2022-08-26T02:11:53.944Z,15.57
2022-08-26T02:14:28.014Z,12.32
2022-08-26T02:16:56.018Z,14.48
2022-08-26T02:19:32.620Z,16.75
2022-08-26T02:22:03.452Z,18.02
2022-08-26T02:24:55.991Z,21.60
2022-08-26T02:27:32.056Z,23.42
2022-08-26T02:30:04.945Z,22.70
2022-08-26T02:32:32.091Z,23.92
2022-08-26T02:34:58.555Z,26.30
2022-08-26T02:37:28.911Z,26.50
2022-08-26T02:39:55.567Z,25.13
2022-08-26T02:42:23.610Z,24.25
2022-08-26T02:44:51.788Z,21.80
2022-08-26T02:47:18.361Z,23.27
2022-08-26T02:49:47.271Z,25.20
2022-08-26T02:52:14.542Z,26.50
2022-08-26T02:54:41.155Z,26.67
2022-08-26T02:57:08.541Z,35.78
2022-08-26T02:59:35.972Z,35.70
2022-08-26T03:02:03.264Z,28.67
2022-08-26T03:04:31.115Z,28.25
2022-08-26T03:07:00.127Z,28.73
2022-08-26T03:09:27.479Z,31.52
2022-08-26T03:11:55.426Z,35.30
2022-08-26T03:14:23.880Z,33.65
2022-08-26T03:16:53.997Z,35.95
2022-08-26T03:19:22.977Z,36.72
2022-08-26T03:21:49.431Z,37.22
2022-08-26T03:24:17.488Z,41.10
2022-08-26T03:26:52.135Z,37.78
2022-08-26T03:29:39.541Z,34.22
2022-08-26T03:32:06.189Z,41.58
2022-08-26T03:34:33.466Z,39.03
2022-08-26T03:37:00.437Z,39.08
2022-08-26T03:39:27.057Z,36.13
2022-08-26T03:41:55.280Z,36.15
2022-08-26T03:44:21.967Z,40.95
2022-08-26T03:46:48.466Z,44.83
2022-08-26T03:49:15.710Z,42.90
2022-08-26T03:51:42.219Z,44.60
2022-08-26T03:54:08.927Z,46.13
2022-08-26T03:56:36.556Z,46.40
2022-08-26T03:59:05.408Z,45.58
2022-08-26T04:01:35.728Z,46.67
2022-08-26T04:04:03.238Z,43.78
2022-08-26T04:06:34.588Z,43.05
2022-08-26T04:09:05.866Z,44.88
2022-08-26T04:11:35.871Z,45.97
2022-08-26T04:14:09.169Z,45.35
2022-08-26T04:16:35.996Z,42.70
2022-08-26T04:19:03.390Z,47.42
2022-08-26T04:21:29.929Z,43.60
2022-08-26T04:23:56.524Z,46.67
2022-08-26T04:26:25.500Z,43.97
2022-08-26T04:28:55.347Z,46.80
2022-08-26T04:31:23.199Z,44.38
2022-08-26T04:33:50.747Z,46.42
2022-08-26T04:36:19.908Z,49.45
2022-08-26T04:38:47.272Z,46.15
2022-08-26T04:41:15.214Z,44.63
2022-08-26T04:43:44.449Z,45.45
2022-08-26T04:46:13.058Z,46.22
2022-08-26T04:48:41.135Z,47.97
2022-08-26T04:51:09.890Z,43.33
2022-08-26T04:53:37.572Z,39.47
2022-08-26T04:56:05.038Z,45.13
2022-08-26T04:58:32.499Z,45.47
2022-08-26T05:00:59.413Z,45.13
2022-08-26T05:03:30.626Z,47.00
2022-08-26T05:05:58.529Z,48.65
2022-08-26T05:08:26.247Z,46.78
2022-08-26T05:10:56.261Z,42.90
2022-08-26T05:13:26.360Z,51.05
2022-08-26T05:15:54.459Z,50.55
2022-08-26T05:18:23.941Z,48.72
2022-08-26T05:20:53.929Z,48.30
2022-08-26T05:23:22.730Z,48.47
2022-08-26T05:25:58.992Z,48.95
2022-08-26T05:28:28.296Z,49.15
2022-08-26T05:30:55.956Z,44.92
2022-08-26T05:33:23.475Z,48.35
2022-08-26T05:35:50.163Z,47.47
2022-08-26T05:38:20.417Z,51.25
2022-08-26T05:40:52.950Z,45.78
2022-08-26T05:43:21.205Z,48.67
2022-08-26T05:45:50.181Z,50.28
2022-08-26T05:48:22.735Z,52.15
2022-08-26T05:50:53.194Z,52.65
2022-08-26T05:53:21.754Z,51.50
2022-08-26T05:55:50.776Z,50.33
2022-08-26T05:58:20.152Z,55.58
2022-08-26T06:00:56.237Z,52.60
2022-08-26T06:03:23.021Z,53.85
2022-08-26T06:05:49.613Z,53.13
2022-08-26T06:08:16.424Z,56.20
2022-08-26T06:10:59.099Z,54.55
2022-08-26T06:13:27.359Z,55.17
2022-08-26T06:15:59.151Z,53.22
2022-08-26T06:18:34.820Z,53.45
2022-08-26T06:21:25.472Z,53.70
2022-08-26T06:24:13.630Z,52.65
2022-08-26T06:26:42.752Z,53.95
2022-08-26T06:29:09.720Z,54.78
2022-08-26T06:31:36.787Z,55.55
2022-08-26T06:34:10.348Z,52.88
2022-08-26T06:36:39.303Z,55.33
2022-08-26T06:39:09.945Z,54.25
2022-08-26T06:41:43.139Z,54.58
2022-08-26T06:44:10.207Z,51.28
2022-08-26T06:46:37.607Z,52.30
2022-08-26T06:49:05.570Z,53.65
2022-08-26T06:51:35.958Z,53.13
2022-08-26T06:54:04.317Z,53.42
2022-08-26T06:56:40.388Z,51.78
2022-08-26T06:59:08.267Z,50.50
2022-08-26T07:01:38.752Z,51.53
2022-08-26T07:04:10.889Z,49.55
2022-08-26T07:06:43.101Z,47.33
2022-08-26T07:09:10.846Z,47.95
2022-08-26T07:11:39.123Z,48.45
2022-08-26T07:14:07.037Z,47.67
2022-08-26T07:16:34.060Z,48.17
2022-08-26T07:19:10.550Z,47.20
2022-08-26T07:21:38.103Z,44.70
2022-08-26T07:24:04.782Z,46.42
2022-08-26T07:26:31.709Z,42.75
2022-08-26T07:28:59.623Z,44.90
2022-08-26T07:31:30.951Z,44.22
2022-08-26T07:34:00.002Z,45.33
2022-08-26T07:36:28.396Z,43.13
2022-08-26T07:38:55.171Z,41.80
2022-08-26T07:41:23.996Z,43.60
2022-08-26T07:43:52.328Z,40.67
2022-08-26T07:46:20.794Z,41.75
2022-08-26T07:48:54.523Z,43.15
2022-08-26T07:51:22.666Z,41.25
2022-08-26T07:53:52.811Z,39.72
2022-08-26T07:56:20.805Z,38.80
2022-08-26T07:58:50.957Z,41.20
2022-08-26T08:01:20.011Z,38.80
2022-08-26T08:03:46.664Z,40.45
2022-08-26T08:06:19.562Z,39.13
2022-08-26T08:08:46.451Z,36.60
2022-08-26T08:11:14.353Z,36.72
2022-08-26T08:13:40.949Z,35.67
2022-08-26T08:16:08.579Z,38.38
2022-08-26T08:18:40.167Z,36.08
2022-08-26T08:21:24.003Z,36.83
2022-08-26T08:23:52.627Z,34.63
2022-08-26T08:26:19.614Z,37.33
2022-08-26T08:28:47.988Z,33.70
2022-08-26T08:31:54.306Z,33.17
2022-08-26T08:34:10.975Z,35.08
2022-08-26T08:36:37.497Z,34.13
2022-08-26T08:39:05.059Z,34.42
2022-08-26T08:42:00.815Z,32.13
2022-08-26T08:44:29.022Z,31.00
2022-08-26T08:47:04.551Z,31.17
2022-08-26T08:49:33.735Z,32.38
2022-08-26T08:52:18.609Z,32.03
2022-08-26T08:54:46.448Z,31.75
2022-08-26T08:57:21.288Z,33.20
2022-08-26T09:00:02.420Z,32.28
2022-08-26T09:02:40.499Z,31.30
2022-08-26T09:05:29.893Z,32.17
2022-08-26T09:08:06.803Z,32.03
2022-08-26T09:10:41.478Z,28.77
2022-08-26T09:13:16.890Z,29.50
2022-08-26T09:15:59.253Z,28.55
2022-08-26T09:18:54.080Z,30.90
2022-08-26T09:21:23.533Z,28.73
2022-08-26T09:23:53.692Z,28.00
2022-08-26T09:26:40.974Z,28.98
2022-08-26T09:31:52.417Z,27.45
2022-08-26T09:34:28.354Z,25.27
2022-08-26T09:36:59.855Z,24.20
2022-08-26T09:39:39.007Z,26.38
2022-08-26T09:42:25.494Z,26.92
2022-08-26T09:45:00.417Z,24.17
2022-08-26T09:47:51.853Z,27.40
2022-08-26T09:50:36.736Z,26.88
2022-08-26T09:53:20.851Z,25.67
2022-08-26T09:55:50.284Z,26.13
2022-08-26T09:58:37.938Z,25.67
2022-08-26T10:01:35.368Z,24.83
2022-08-26T10:04:09.721Z,23.52
2022-08-26T10:07:02.302Z,24.05
2022-08-26T10:09:33.170Z,24.15
2022-08-26T10:12:05.429Z,25.10
2022-08-26T10:14:49.062Z,24.00
2022-08-26T10:17:38.284Z,22.67
2022-08-26T10:20:22.456Z,21.42
2022-08-26T10:22:54.063Z,22.00
2022-08-26T10:25:26.279Z,22.17
2022-08-26T10:27:59.439Z,21.75
2022-08-26T10:30:34.479Z,20.98
2022-08-26T10:33:06.576Z,23.02
2022-08-26T10:35:36.376Z,21.20
2022-08-26T10:38:10.967Z,22.63
2022-08-26T10:40:56.227Z,21.08
2022-08-26T10:43:28.184Z,23.13
2022-08-26T10:46:00.905Z,23.40
2022-08-26T10:48:46.840Z,23.45
2022-08-26T10:51:16.416Z,24.15
2022-08-26T10:53:56.662Z,24.65
2022-08-26T10:56:53.801Z,22.52
2022-08-26T10:59:45.753Z,24.90
2022-08-26T11:02:25.126Z,23.42
2022-08-26T11:05:14.650Z,24.80
2022-08-26T11:07:52.559Z,25.58
2022-08-26T11:10:21.735Z,25.08
2022-08-26T11:13:06.819Z,24.45
2022-08-26T11:18:11.132Z,22.48
2022-08-26T11:20:44.860Z,23.15
2022-08-26T11:23:12.522Z,22.83
2022-08-26T11:26:11.501Z,23.77
2022-08-26T11:28:49.173Z,21.35
2022-08-26T11:31:19.149Z,22.13
2022-08-26T11:33:58.229Z,19.52
2022-08-26T11:36:35.345Z,19.13
2022-08-26T11:39:28.517Z,20.65
2022-08-26T11:42:00.083Z,20.35
2022-08-26T11:44:38.996Z,22.10
2022-08-26T11:47:11.352Z,22.88
2022-08-26T11:49:38.773Z,23.90
2022-08-26T11:52:20.895Z,20.40
2022-08-26T11:55:11.173Z,20.65
2022-08-26T11:57:45.718Z,19.77
2022-08-26T12:00:26.511Z,19.05
2022-08-26T12:02:55.564Z,17.85
2022-08-26T12:05:34.870Z,19.15
2022-08-26T12:08:11.984Z,17.42
2022-08-26T12:10:38.667Z,15.93
2022-08-26T12:13:07.180Z,16.90
2022-08-26T12:15:35.448Z,15.82
2022-08-26T12:18:28.907Z,16.20
2022-08-26T12:20:59.777Z,15.10
2022-08-26T12:23:36.702Z,14.75
2022-08-26T12:26:29.493Z,15.18
2022-08-26T12:29:19.711Z,14.27
2022-08-26T12:31:47.893Z,13.05
2022-08-26T12:34:18.108Z,13.55
2022-08-26T12:36:56.377Z,14.57
2022-08-26T12:39:36.599Z,14.30
2022-08-26T12:42:22.033Z,12.73
2022-08-26T12:44:58.425Z,13.88
2022-08-26T12:47:41.862Z,14.07
2022-08-26T12:50:20.382Z,15.07
2022-08-26T12:53:03.019Z,13.65
2022-08-26T12:55:32.708Z,13.45
2022-08-26T12:58:18.082Z,11.90
2022-08-26T13:00:45.811Z,13.57
2022-08-26T13:03:34.286Z,14.00
2022-08-26T13:06:15.876Z,14.93
2022-08-26T13:08:58.004Z,18.05
2022-08-26T13:11:28.288Z,18.52
2022-08-26T13:13:57.828Z,18.55
2022-08-26T13:16:25.483Z,17.50
2022-08-26T13:18:58.715Z,17.38
2022-08-26T13:21:32.070Z,18.75
2022-08-26T13:24:12.468Z,18.55
2022-08-26T13:26:40.884Z,18.48
2022-08-26T13:29:10.379Z,17.17
2022-08-26T13:31:39.538Z,14.00
2022-08-26T13:34:08.572Z,14.52
2022-08-26T13:36:35.253Z,15.18
2022-08-26T13:39:01.836Z,15.23
2022-08-26T13:41:29.184Z,14.52
2022-08-26T13:43:56.855Z,13.43
2022-08-26T13:46:27.380Z,14.80
2022-08-26T13:48:54.514Z,13.50
2022-08-26T13:51:22.545Z,14.55
2022-08-26T13:53:50.577Z,12.85
2022-08-26T13:56:18.730Z,13.38
2022-08-26T13:58:46.744Z,12.02
2022-08-26T14:01:15.470Z,11.27
2022-08-26T14:03:43.612Z,10.77
2022-08-26T14:06:10.397Z,10.23
2022-08-26T14:08:38.484Z,8.05
2022-08-26T14:11:05.200Z,8.13
2022-08-26T14:13:31.786Z,7.45
2022-08-26T14:16:01.389Z,7.00
2022-08-26T14:18:33.236Z,8.00
2022-08-26T14:21:00.595Z,7.50
2022-08-26T14:23:27.526Z,7.00
2022-08-26T14:25:54.147Z,6.28
2022-08-26T14:28:20.724Z,6.25
2022-08-26T14:30:57.735Z,6.65
2022-08-26T14:33:27.096Z,8.60
2022-08-26T14:36:13.696Z,10.18
2022-08-26T14:38:40.232Z,8.93
2022-08-26T14:41:06.939Z,8.57
2022-08-26T14:43:34.027Z,8.63
2022-08-26T14:46:00.993Z,7.50
2022-08-26T14:48:27.459Z,7.03
2022-08-26T14:50:54.050Z,6.85
2022-08-26T14:53:39.033Z,8.50
2022-08-26T14:56:05.716Z,8.85
2022-08-26T14:58:34.891Z,9.02
2022-08-26T15:01:04.438Z,9.68
2022-08-26T15:03:31.053Z,8.40
2022-08-26T15:05:57.883Z,7.25
2022-08-26T15:08:25.432Z,9.35
2022-08-26T15:10:51.938Z,8.65
2022-08-26T15:13:19.011Z,7.75
2022-08-26T15:15:46.422Z,6.72
2022-08-26T15:18:13.124Z,6.28
2022-08-26T15:20:39.659Z,6.13
2022-08-26T15:23:07.357Z,5.25
2022-08-26T15:25:34.104Z,5.30
2022-08-26T15:28:00.881Z,6.25
2022-08-26T15:30:27.399Z,6.85
2022-08-26T15:32:54.078Z,7.47
2022-08-26T15:35:20.545Z,7.07
2022-08-26T15:37:47.299Z,7.80
2022-08-26T15:40:13.848Z,7.32
2022-08-26T15:42:40.546Z,6.75
2022-08-26T15:45:07.761Z,6.75
2022-08-26T15:47:35.479Z,6.43
2022-08-26T15:50:20.910Z,6.15
2022-08-26T15:52:47.809Z,5.55
2022-08-26T15:55:14.281Z,5.32
2022-08-26T15:57:40.963Z,5.60
2022-08-26T16:00:09.742Z,6.00
2022-08-26T16:02:36.307Z,6.53
2022-08-26T16:05:02.934Z,5.20
2022-08-26T16:07:29.402Z,4.72
2022-08-26T16:09:56.684Z,4.03
2022-08-26T16:12:23.168Z,4.97
2022-08-26T16:14:51.452Z,4.90
2022-08-26T16:17:19.842Z,4.10
2022-08-26T16:19:46.996Z,4.45
2022-08-26T16:22:13.568Z,4.57
2022-08-26T16:24:40.060Z,5.07
2022-08-26T16:27:06.709Z,5.15
2022-08-26T16:29:33.244Z,6.55
2022-08-26T16:31:59.793Z,5.65
2022-08-26T16:34:26.408Z,5.90
2022-08-26T16:36:53.002Z,5.90
2022-08-26T16:39:19.624Z,6.40
2022-08-26T16:41:46.079Z,7.85
2022-08-26T16:44:12.780Z,7.00
2022-08-26T16:46:39.629Z,7.38
2022-08-26T16:49:06.334Z,7.03
2022-08-26T16:51:37.636Z,6.75
2022-08-26T16:54:07.077Z,6.20
2022-08-26T16:56:34.725Z,6.45
2022-08-26T16:59:05.742Z,6.90
2022-08-26T17:01:32.471Z,7.00
2022-08-26T17:03:59.045Z,6.60
2022-08-26T17:06:25.579Z,6.35
2022-08-26T17:08:52.987Z,6.53
2022-08-26T17:11:19.693Z,7.38
2022-08-26T17:13:46.296Z,7.13
2022-08-26T17:16:13.706Z,7.22
2022-08-26T17:18:40.490Z,6.28
2022-08-26T17:21:10.538Z,6.90
2022-08-26T17:23:38.176Z,7.40
2022-08-26T17:26:04.847Z,7.65
2022-08-26T17:28:31.970Z,7.60
2022-08-26T17:30:59.578Z,7.78
2022-08-26T17:33:26.959Z,8.38
2022-08-26T17:35:54.059Z,7.47
2022-08-26T17:38:21.600Z,7.75
2022-08-26T17:40:49.536Z,7.63
2022-08-26T17:43:16.653Z,8.15
2022-08-26T17:45:43.859Z,8.65
2022-08-26T17:48:11.099Z,8.60
2022-08-26T17:50:42.831Z,8.23
2022-08-26T17:53:12.686Z,8.40
2022-08-26T17:55:47.048Z,8.30
2022-08-26T17:58:14.668Z,9.77
2022-08-26T18:00:50.128Z,10.48
2022-08-26T18:03:17.676Z,10.60
2022-08-26T18:05:48.241Z,12.50
2022-08-26T18:08:14.856Z,12.00
2022-08-26T18:10:43.748Z,11.13
2022-08-26T18:13:10.658Z,11.75
2022-08-26T18:15:45.415Z,10.13
2022-08-26T18:18:14.508Z,11.43
2022-08-26T18:20:42.947Z,10.35
2022-08-26T18:23:10.223Z,9.70
2022-08-26T18:25:43.999Z,10.00
2022-08-26T18:28:10.992Z,9.20
2022-08-26T18:30:37.933Z,9.38
2022-08-26T18:33:04.770Z,7.93
2022-08-26T18:35:31.371Z,8.23
2022-08-26T18:37:58.298Z,7.78
2022-08-26T18:40:38.789Z,8.00
2022-08-26T18:43:05.644Z,7.88
2022-08-26T18:45:32.325Z,7.63
2022-08-26T18:47:58.824Z,7.57
2022-08-26T18:50:25.508Z,7.55
2022-08-26T18:52:52.063Z,7.68
2022-08-26T18:55:18.716Z,6.85
2022-08-26T18:57:45.280Z,7.93
2022-08-26T19:00:13.289Z,7.35
2022-08-26T19:02:39.852Z,7.40
2022-08-26T19:05:08.011Z,7.05
2022-08-26T19:07:39.001Z,7.32
2022-08-26T19:10:06.604Z,7.25
2022-08-26T19:12:34.862Z,7.15
2022-08-26T19:15:02.558Z,6.55
2022-08-26T19:17:29.159Z,7.35
2022-08-26T19:19:55.766Z,5.82
2022-08-26T19:22:22.287Z,6.82
2022-08-26T19:24:48.972Z,5.55
2022-08-26T19:27:15.488Z,5.20
2022-08-26T19:29:42.104Z,5.93
2022-08-26T19:32:08.794Z,5.95
2022-08-26T19:34:36.307Z,4.90
2022-08-26T19:37:02.804Z,5.32
2022-08-26T19:39:29.383Z,4.78
2022-08-26T19:41:55.946Z,5.43
2022-08-26T19:44:42.598Z,4.90
2022-08-26T19:47:10.876Z,4.82
2022-08-26T19:49:38.269Z,4.68
2022-08-26T19:52:05.957Z,4.72
2022-08-26T19:54:32.723Z,4.93
2022-08-26T19:56:59.253Z,5.07
2022-08-26T19:59:25.960Z,4.85
2022-08-26T20:02:00.641Z,5.63
2022-08-26T20:04:28.944Z,5.00
2022-08-26T20:06:57.689Z,4.78
2022-08-26T20:09:28.411Z,5.35
2022-08-26T20:11:56.922Z,5.07
2022-08-26T20:14:28.638Z,5.32
2022-08-26T20:16:55.559Z,4.68
2022-08-26T20:19:41.099Z,4.95
2022-08-26T20:22:08.748Z,5.60
2022-08-26T20:24:38.679Z,5.55
2022-08-26T20:27:08.037Z,5.05
2022-08-26T20:29:36.411Z,5.30
2022-08-26T20:32:05.846Z,5.05
2022-08-26T20:34:38.583Z,5.53
2022-08-26T20:37:05.972Z,5.15
2022-08-26T20:39:32.874Z,4.85
2022-08-26T20:41:59.385Z,5.75
2022-08-26T20:44:27.122Z,5.18
2022-08-26T20:46:53.569Z,5.18
2022-08-26T20:49:20.305Z,6.07
2022-08-26T20:51:51.361Z,5.97
2022-08-26T20:54:19.880Z,5.90
2022-08-26T20:56:46.998Z,5.53
2022-08-26T20:59:14.101Z,5.30
2022-08-26T21:01:42.457Z,5.40
2022-08-26T21:04:13.812Z,5.72
2022-08-26T21:06:42.345Z,5.68
2022-08-26T21:09:16.441Z,6.00
2022-08-26T21:11:44.411Z,6.40
2022-08-26T21:14:16.790Z,6.45
2022-08-26T21:16:45.672Z,6.53
2022-08-26T21:19:17.538Z,7.07
2022-08-26T21:21:44.484Z,6.72
2022-08-26T21:24:11.385Z,6.60
2022-08-26T21:26:38.251Z,6.97
2022-08-26T21:29:06.642Z,7.05
2022-08-26T21:31:33.369Z,6.65
2022-08-26T21:34:00.080Z,7.55
2022-08-26T21:36:26.948Z,7.32
2022-08-26T21:38:58.942Z,6.68
2022-08-26T21:41:26.557Z,7.18
2022-08-26T21:43:57.912Z,7.38
2022-08-26T21:46:26.099Z,7.10
2022-08-26T21:48:59.034Z,7.25
2022-08-26T21:51:32.537Z,7.28
2022-08-26T21:54:00.833Z,7.88
2022-08-26T21:56:31.461Z,7.38
2022-08-26T21:58:59.117Z,7.47
2022-08-26T22:01:29.436Z,7.28
2022-08-26T22:03:56.296Z,7.68
2022-08-26T22:06:25.992Z,6.53
2022-08-26T22:08:54.065Z,6.90
2022-08-26T22:11:21.261Z,6.95
2022-08-26T22:13:49.171Z,7.53
2022-08-26T22:16:15.784Z,6.80
2022-08-26T22:18:43.761Z,6.65
2022-08-26T22:21:14.738Z,7.20
2022-08-26T22:23:41.361Z,8.07
2022-08-26T22:26:09.933Z,7.65
2022-08-26T22:28:36.690Z,7.78
2022-08-26T22:31:03.228Z,6.75
2022-08-26T22:33:29.853Z,7.93
2022-08-26T22:35:56.453Z,8.55
2022-08-26T22:38:23.853Z,9.00
2022-08-26T22:40:56.458Z,8.40
2022-08-26T22:43:24.229Z,7.80
2022-08-26T22:45:52.830Z,8.18
2022-08-26T22:48:22.620Z,8.55
2022-08-26T22:50:53.311Z,9.43
2022-08-26T22:53:21.461Z,8.77
2022-08-26T22:55:48.516Z,8.52
2022-08-26T22:58:16.903Z,9.13
2022-08-26T23:00:44.446Z,9.88
2022-08-26T23:03:11.493Z,10.65
2022-08-26T23:05:39.619Z,11.25
2022-08-26T23:08:06.776Z,10.65
2022-08-26T23:10:36.869Z,11.13
2022-08-26T23:13:05.675Z,10.73
2022-08-26T23:15:32.222Z,12.15
2022-08-26T23:17:59.112Z,12.88
2022-08-26T23:20:26.436Z,14.68
2022-08-26T23:22:53.515Z,13.00
2022-08-26T23:25:21.048Z,13.57
2022-08-26T23:27:48.410Z,13.18
2022-08-26T23:30:18.677Z,13.30
2022-08-26T23:32:47.307Z,12.77
2022-08-26T23:35:14.919Z,12.90
2022-08-26T23:37:46.142Z,14.77
2022-08-26T23:40:20.025Z,12.98
2022-08-26T23:42:46.565Z,12.98
2022-08-26T23:45:14.597Z,12.68
2022-08-26T23:47:41.338Z,12.43
2022-08-26T23:50:08.575Z,13.40
2022-08-26T23:52:54.096Z,13.00
2022-08-26T23:55:20.772Z,13.48
2022-08-26T23:57:47.528Z,14.35
